Briefing drone pour La chapelle-saint-mesmin

Rechercher une autre localisation

Conditions de vol :


Nous sommes le : Dimanche 28 février 2021
Il est 18:57 UTC (19:57 LT)

Lever de soleil : 06:08 UTC (07:08 LT)
Coucher de soleil : 18:02 UTC (19:02 LT)

Météo

L'essentiel des conditions de vol

VIGILANCE MÉTÉO FRANCE - Loiret (45)
Pas de vigilances particulieres
METAR de LFOJ
LFOJ 281830Z AUTO 08006KT CAVOK 07/01 Q1028

Date d'émission: 28/02/2021
Heure d'émission: 18:30 UTC
Vent: 080° pour 6 KT (11 km/h)
Visibilité horizontale: > 10 km
Plafond : Plafond et visibilité OK (CAVOK)
Température: 7 °C
Point de rosée: 1 °C
Humidité: 66%
Pression (QNH): 1028 hPa
TAF de LFOJ
LFOJ 281703Z 2817/0115 CNL

Conditions prévues :

Heure d'émission : Bulletin éffectué le 28 à 17:00 UTC
Prévision : Valide du 28 a 17:00 UTC au 01 a 15:00 UTC
Nuages : à 0ft (0 m)
WEBCAM POUR LA CHAPELLE-SAINT-MESMIN

Réglementation

Voler en sécurité

CARTES AERONAUTIQUE 1/500.000
CARTES VAC (LFOJ)
SUP AIP




Chargement des AIP...
NOTAM (LA CHAPELLE-SAINT-MESMIN + Terrain à proximité / FIR )




Chargement des NOTAMS...
CONTACT PREFECTURE 45


Avertissement : Les données mises à disposition sont indicatives. Oxygène Drone ne pourra être tenu responsable de dégâts causés aux biens et aux personnes.